Time;durP1;ratioP1;P1;durP2;ratioP2;P2;SDS_P1;SDS_P2;PMS_P1;PMS_P2;Temp;Humidity;BMP_temperature;BMP_pressure;BME280_temperature;BME280_humidity;BME280_pressure;Samples;Min_cycle;Max_cycle;Signal;HPM_P1;HPM_P2
2021/12/20 00:01:42;;;;;;;7.90;3.07;;;;;;;5.53;62.28;100293.09;4958458;28;96837;-84
2021/12/20 00:04:07;;;;;;;10.85;3.40;;;;;;;5.50;62.34;100299.22;4964946;28;97534;-84
2021/12/20 00:06:33;;;;;;;6.97;2.77;;;;;;;5.32;62.29;100273.41;4973514;28;97400;-84
2021/12/20 00:08:58;;;;;;;9.03;2.93;;;;;;;5.32;62.34;100269.06;4960799;28;97291;-87
2021/12/20 00:11:24;;;;;;;13.40;3.67;;;;;;;5.39;62.47;100301.94;4974910;28;96879;-84
2021/12/20 00:13:49;;;;;;;7.83;3.53;;;;;;;5.41;62.66;100305.41;4980952;28;98179;-84
2021/12/20 00:16:15;;;;;;;9.90;3.20;;;;;;;5.32;62.35;100307.25;4979274;28;101357;-84
2021/12/20 00:18:42;;;;;;;8.77;2.97;;;;;;;5.32;62.75;100305.50;4967493;28;97058;-86
2021/12/20 00:21:08;;;;;;;12.00;4.10;;;;;;;5.32;62.57;100294.22;4957214;28;97047;-84
2021/12/20 00:23:34;;;;;;;9.17;3.93;;;;;;;5.21;62.03;100281.38;4963645;28;101105;-84
2021/12/20 00:26:00;;;;;;;11.47;4.27;;;;;;;5.29;62.43;100289.91;4958884;28;101227;-84
2021/12/20 00:28:25;;;;;;;8.60;3.43;;;;;;;5.26;62.73;100296.91;4957847;28;97213;-85
2021/12/20 00:30:51;;;;;;;7.67;3.33;;;;;;;5.34;61.97;100305.50;4958107;28;96613;-84
2021/12/20 00:33:17;;;;;;;13.07;3.33;;;;;;;5.22;62.05;100283.09;4965545;28;101087;-84
2021/12/20 00:35:43;;;;;;;8.00;2.90;;;;;;;5.29;62.27;100302.94;4992496;28;98001;-84
2021/12/20 00:40:53;;;;;;;8.83;2.87;;;;;;;5.21;62.32;100323.88;4970208;28;96976;-83
2021/12/20 00:43:19;;;;;;;7.13;2.73;;;;;;;5.19;62.31;100315.22;4969604;28;101039;-83
2021/12/20 00:45:44;;;;;;;6.27;2.60;;;;;;;5.17;62.79;100314.34;4976963;28;101686;-83
2021/12/20 00:48:10;;;;;;;6.50;2.60;;;;;;;5.20;62.29;100327.34;4966969;28;97316;-83
2021/12/20 00:50:37;;;;;;;6.30;2.63;;;;;;;5.14;62.26;100327.41;4987271;28;97195;-83
2021/12/20 00:53:03;;;;;;;8.57;2.70;;;;;;;5.20;62.29;100337.75;4964104;28;100807;-83
2021/12/20 00:55:29;;;;;;;8.63;3.13;;;;;;;5.15;62.16;100320.50;4992954;28;100811;-84
2021/12/20 00:57:58;;;;;;;9.40;3.30;;;;;;;4.91;62.29;100285.19;4973735;28;96899;-83
2021/12/20 01:00:27;;;;;;;8.20;3.10;;;;;;;5.17;62.49;100332.56;4973854;28;97220;-83
2021/12/20 01:02:53;;;;;;;12.40;3.70;;;;;;;5.06;62.64;100318.84;4976755;28;101684;-82
2021/12/20 01:05:20;;;;;;;8.60;3.10;;;;;;;5.12;62.94;100344.81;4976067;28;101328;-83
2021/12/20 01:07:45;;;;;;;9.83;3.57;;;;;;;5.17;62.83;100342.13;4960296;28;97169;-83
2021/12/20 01:10:12;;;;;;;8.87;3.60;;;;;;;5.18;62.57;100336.94;4947214;28;97243;-83
2021/12/20 01:12:48;;;;;;;11.53;4.13;;;;;;;5.14;62.88;100331.75;4965944;28;101415;-83
2021/12/20 01:15:28;;;;;;;7.57;3.47;;;;;;;5.14;62.79;100334.34;4971038;28;97911;-88
2021/12/20 01:17:53;;;;;;;11.60;4.67;;;;;;;5.16;62.80;100343.88;4980469;28;96818;-84
2021/12/20 01:20:19;;;;;;;12.40;3.87;;;;;;;5.02;63.03;100331.91;4963895;28;96868;-84
2021/12/20 01:22:50;;;;;;;11.13;3.80;;;;;;;5.12;63.22;100349.13;4975676;28;101876;-84
2021/12/20 01:25:16;;;;;;;7.87;3.30;;;;;;;5.06;63.57;100344.88;4948480;28;101110;-87
2021/12/20 01:27:42;;;;;;;7.53;3.50;;;;;;;5.12;63.72;100344.81;4981240;28;96686;-83
2021/12/20 01:30:09;;;;;;;10.23;3.50;;;;;;;5.05;63.73;100329.28;4949207;28;96934;-83
2021/12/20 01:32:35;;;;;;;7.87;2.97;;;;;;;4.96;63.49;100323.28;4957365;28;102006;-82
2021/12/20 01:35:01;;;;;;;10.67;3.30;;;;;;;5.14;63.63;100355.19;4939811;28;100852;-83
2021/12/20 01:37:26;;;;;;;8.03;3.27;;;;;;;4.99;63.40;100330.19;4941872;28;97114;-83
2021/12/20 01:39:53;;;;;;;7.73;3.30;;;;;;;5.14;63.40;100343.03;4968787;28;97203;-83
2021/12/20 01:42:20;;;;;;;9.13;3.13;;;;;;;5.15;63.70;100355.19;4969695;28;101432;-84
2021/12/20 01:44:48;;;;;;;9.63;3.43;;;;;;;5.13;63.59;100346.50;4962659;28;100963;-83
2021/12/20 01:47:14;;;;;;;10.23;3.43;;;;;;;5.07;64.00;100348.34;4979344;28;96734;-83
2021/12/20 01:49:44;;;;;;;13.00;3.00;;;;;;;5.08;64.14;100357.84;4986611;28;96883;-84
2021/12/20 01:52:14;;;;;;;7.40;3.47;;;;;;;4.95;64.15;100331.97;4972037;28;101399;-83
2021/12/20 01:54:41;;;;;;;6.07;2.83;;;;;;;5.03;63.94;100342.28;4967402;28;102145;-83
2021/12/20 01:57:07;;;;;;;7.97;3.57;;;;;;;5.02;63.71;100342.31;4978835;28;96802;-83
2021/12/20 01:59:32;;;;;;;8.27;3.27;;;;;;;5.10;63.57;100349.16;4965142;28;97092;-84
2021/12/20 02:01:58;;;;;;;10.60;2.77;;;;;;;5.04;63.68;100343.16;4970047;28;101460;-84
2021/12/20 02:04:24;;;;;;;9.23;3.27;;;;;;;5.12;63.71;100352.59;4981356;28;101492;-85
2021/12/20 02:06:50;;;;;;;9.13;3.23;;;;;;;5.15;63.95;100367.34;4969656;28;96609;-84
2021/12/20 02:09:17;;;;;;;8.83;3.33;;;;;;;5.12;63.84;100362.13;4967092;28;97059;-83
2021/12/20 02:11:46;;;;;;;8.47;2.80;;;;;;;4.97;63.46;100337.16;4971837;28;102101;-83
2021/12/20 02:14:12;;;;;;;7.13;2.77;;;;;;;5.03;63.70;100352.69;4950996;28;101139;-83
2021/12/20 02:16:39;;;;;;;8.63;3.63;;;;;;;4.85;63.17;100322.53;4962636;28;97140;-83
2021/12/20 02:19:10;;;;;;;5.93;2.30;;;;;;;5.12;62.79;100373.44;4964857;28;97352;-84
2021/12/20 02:21:36;;;;;;;;;;;;;;;5.09;63.14;100370.88;5006224;28;101533;-83
2021/12/20 02:24:03;;;;;;;9.93;2.73;;;;;;;4.92;62.78;100344.16;4964331;28;101602;-83
2021/12/20 02:26:29;;;;;;;9.73;2.97;;;;;;;5.03;62.91;100376.09;4954776;28;97060;-85
2021/12/20 02:28:57;;;;;;;11.27;3.37;;;;;;;5.05;63.38;100374.34;4972377;28;97033;-84
2021/12/20 02:39:22;;;;;;;7.33;2.83;;;;;;;5.15;63.16;100370.78;5003613;28;96752;-83
2021/12/20 02:41:48;;;;;;;10.07;3.63;;;;;;;5.09;62.86;100378.66;4996845;28;101680;-83
2021/12/20 02:44:18;;;;;;;12.33;3.80;;;;;;;5.12;62.87;100365.63;4991432;28;101617;-83
2021/12/20 02:47:04;;;;;;;9.07;3.20;;;;;;;5.12;62.48;100359.53;4963822;28;97060;-84
2021/12/20 02:49:30;;;;;;;11.07;3.77;;;;;;;5.15;62.40;100368.19;4980977;28;96652;-83
2021/12/20 02:52:01;;;;;;;9.03;3.10;;;;;;;5.09;62.48;100370.88;4990340;28;97973;-84
2021/12/20 02:54:26;;;;;;;10.17;3.47;;;;;;;5.03;62.30;100362.25;4947975;28;101212;-83
2021/12/20 02:56:52;;;;;;;8.60;3.20;;;;;;;5.09;62.30;100364.78;4974654;28;98276;-84
2021/12/20 02:59:18;;;;;;;11.63;3.43;;;;;;;5.11;62.46;100376.03;4983435;28;97336;-83
2021/12/20 03:01:55;;;;;;;7.10;2.50;;;;;;;5.05;62.51;100378.69;4956693;28;101618;-84
2021/12/20 03:04:21;;;;;;;7.97;2.80;;;;;;;5.06;62.86;100383.00;4965727;28;101154;-86
2021/12/20 03:06:53;;;;;;;9.00;2.60;;;;;;;4.89;62.56;100360.66;4975418;28;96585;-83
2021/12/20 03:09:22;;;;;;;7.30;2.80;;;;;;;5.01;62.40;100367.47;4964072;28;96912;-89
2021/12/20 03:11:51;;;;;;;7.87;3.33;;;;;;;4.95;61.99;100362.34;4943896;28;101219;-83
2021/12/20 03:14:39;;;;;;;5.83;2.67;;;;;;;5.05;62.42;100381.31;4958191;28;101088;-83
2021/12/20 03:17:05;;;;;;;6.30;2.47;;;;;;;5.01;61.92;100375.28;4978207;28;96662;-84
2021/12/20 03:19:31;;;;;;;7.73;3.00;;;;;;;5.05;62.10;100376.09;4973164;28;97145;-84
2021/12/20 03:21:57;;;;;;;9.87;2.87;;;;;;;5.03;61.81;100370.91;4944450;28;101210;-84
2021/12/20 03:24:23;;;;;;;9.57;2.90;;;;;;;4.83;61.62;100341.63;4960693;28;101116;-83
2021/12/20 03:26:49;;;;;;;5.87;2.50;;;;;;;5.00;61.82;100370.94;4947903;28;97093;-83
2021/12/20 03:29:15;;;;;;;5.40;2.07;;;;;;;5.07;61.75;100374.34;4978742;28;96915;-83
2021/12/20 03:31:41;;;;;;;4.40;2.00;;;;;;;5.06;61.92;100381.31;4983006;28;97663;-84
2021/12/20 03:34:08;;;;;;;5.03;2.10;;;;;;;5.05;61.58;100395.16;4967964;28;102004;-84
2021/12/20 03:36:34;;;;;;;5.00;1.97;;;;;;;5.03;61.44;100377.84;4959400;28;97218;-83
2021/12/20 03:39:00;;;;;;;4.93;1.80;;;;;;;5.03;61.36;100381.31;4978246;28;97053;-84
2021/12/20 03:41:25;;;;;;;3.67;2.07;;;;;;;5.05;61.54;100382.16;4966439;28;98134;-84
2021/12/20 03:43:51;;;;;;;6.13;2.10;;;;;;;4.92;61.26;100368.44;4968128;28;97958;-83
2021/12/20 03:46:17;;;;;;;4.90;1.90;;;;;;;4.96;61.63;100374.47;4974084;28;97446;-88
2021/12/20 03:48:43;;;;;;;5.20;1.97;;;;;;;4.85;61.65;100371.09;4956275;28;97407;-86
2021/12/20 03:51:09;;;;;;;6.37;1.97;;;;;;;4.88;61.80;100374.53;4954912;28;101860;-84
2021/12/20 03:53:35;;;;;;;4.47;1.97;;;;;;;4.95;61.67;100388.34;4968436;28;101304;-84
2021/12/20 03:56:02;;;;;;;5.40;1.80;;;;;;;4.91;61.63;100379.69;4960987;28;96625;-84
2021/12/20 03:58:28;;;;;;;5.20;2.07;;;;;;;4.94;61.40;100384.00;4985019;28;96850;-84
2021/12/20 04:00:58;;;;;;;5.10;1.63;;;;;;;4.84;61.22;100356.38;4962873;28;100971;-84
2021/12/20 04:03:25;;;;;;;2.13;1.10;;;;;;;4.88;61.67;100366.72;4961197;28;97569;-85
2021/12/20 04:05:51;;;;;;;2.90;1.53;;;;;;;4.85;61.29;100387.56;4972323;28;96971;-84
2021/12/20 04:08:17;;;;;;;3.87;1.40;;;;;;;4.87;61.64;100385.81;4979330;28;97163;-84
2021/12/20 04:10:43;;;;;;;6.47;1.70;;;;;;;4.81;61.55;100378.06;4969401;28;98461;-83
2021/12/20 04:13:09;;;;;;;3.73;1.70;;;;;;;4.80;61.85;100391.97;4972244;28;97490;-84
2021/12/20 04:15:36;;;;;;;3.63;1.80;;;;;;;4.80;61.69;100391.97;4975315;28;96641;-84
2021/12/20 04:18:02;;;;;;;4.70;1.73;;;;;;;4.73;61.50;100374.69;4978275;28;96946;-83
2021/12/20 04:20:28;;;;;;;4.10;1.33;;;;;;;4.86;61.68;100388.41;4967091;28;100407;-84
2021/12/20 04:22:53;;;;;;;5.03;1.60;;;;;;;4.81;61.67;100382.41;4956503;28;101916;-84
2021/12/20 04:25:19;;;;;;;3.43;1.63;;;;;;;4.87;61.16;100393.63;4967184;28;97087;-83
2021/12/20 04:27:45;;;;;;;6.13;2.10;;;;;;;4.88;61.62;100397.94;4974465;28;96871;-83
2021/12/20 04:30:11;;;;;;;4.40;1.23;;;;;;;4.85;61.48;100391.91;4983826;28;97500;-83
2021/12/20 04:32:46;;;;;;;4.43;1.40;;;;;;;4.93;61.26;100390.09;4947675;28;101255;-85
2021/12/20 04:35:14;;;;;;;4.57;1.30;;;;;;;4.81;61.21;100380.69;4976983;28;97017;-83
2021/12/20 04:37:41;;;;;;;3.10;1.37;;;;;;;4.85;61.26;100397.09;4972354;28;96872;-83
2021/12/20 04:40:11;;;;;;;6.60;1.50;;;;;;;4.89;61.33;100404.88;4969307;28;100465;-83
2021/12/20 04:42:37;;;;;;;3.07;1.37;;;;;;;4.88;61.44;100410.94;4964870;28;101290;-84
2021/12/20 04:45:04;;;;;;;4.47;1.10;;;;;;;4.73;61.31;100392.88;4948770;28;96705;-84
2021/12/20 04:47:30;;;;;;;4.90;1.47;;;;;;;4.73;61.55;100414.53;4992245;28;96726;-84
2021/12/20 04:49:55;;;;;;;4.40;2.17;;;;;;;4.74;61.55;100403.28;4965027;28;101202;-84
2021/12/20 04:52:21;;;;;;;3.70;1.37;;;;;;;4.72;61.50;100394.63;4970265;28;101953;-83
2021/12/20 04:54:46;;;;;;;3.17;1.20;;;;;;;4.77;61.71;100410.19;4968705;28;97116;-84
2021/12/20 04:57:12;;;;;;;2.97;1.20;;;;;;;4.70;61.96;100408.50;4964217;28;97632;-83
2021/12/20 04:59:38;;;;;;;4.23;1.20;;;;;;;4.72;62.29;100411.97;4948893;28;101719;-84
2021/12/20 05:02:03;;;;;;;3.07;1.13;;;;;;;4.81;62.19;100418.84;4969511;28;100434;-84
2021/12/20 05:04:29;;;;;;;2.20;1.00;;;;;;;4.76;61.47;100419.72;4984873;28;96741;-84
2021/12/20 05:06:55;;;;;;;7.17;2.23;;;;;;;4.75;61.92;100425.81;4974361;28;97137;-83
2021/12/20 05:09:20;;;;;;;3.43;0.80;;;;;;;4.77;62.16;100425.81;4967630;28;101171;-83
2021/12/20 05:12:00;;;;;;;3.47;1.30;;;;;;;4.78;62.14;100437.06;4966866;28;100913;-84
2021/12/20 05:14:26;;;;;;;3.07;1.67;;;;;;;4.68;62.13;100418.94;4966784;28;96733;-85
2021/12/20 05:16:52;;;;;;;4.57;1.40;;;;;;;4.79;62.04;100436.19;4960766;28;96970;-83
2021/12/20 05:19:17;;;;;;;4.33;1.23;;;;;;;4.69;61.99;100427.59;4947424;28;101952;-83
2021/12/20 05:21:43;;;;;;;5.00;1.50;;;;;;;4.70;61.88;100426.72;4959064;28;101359;-83
2021/12/20 05:24:08;;;;;;;3.07;1.20;;;;;;;4.68;62.03;100439.75;4985907;28;97192;-83
2021/12/20 05:26:34;;;;;;;4.90;1.20;;;;;;;4.66;62.00;100435.44;4962962;28;96981;-83
2021/12/20 05:29:01;;;;;;;3.20;1.40;;;;;;;4.69;62.01;100456.22;4972959;28;101353;-85
2021/12/20 05:31:26;;;;;;;2.90;1.30;;;;;;;4.71;62.09;100457.03;4987479;28;97393;-89
2021/12/20 05:33:52;;;;;;;2.23;1.30;;;;;;;4.66;62.03;100449.28;4969422;28;97088;-83
2021/12/20 05:36:17;;;;;;;3.07;1.20;;;;;;;4.71;62.18;100452.72;4975341;28;97018;-83
2021/12/20 05:38:43;;;;;;;3.27;1.17;;;;;;;4.70;62.13;100456.19;4966637;28;101244;-83
2021/12/20 05:41:08;;;;;;;6.20;1.33;;;;;;;4.58;61.84;100445.03;4959536;28;101584;-84
2021/12/20 05:43:34;;;;;;;3.10;1.20;;;;;;;4.64;61.83;100473.56;4980329;28;97798;-84
2021/12/20 05:46:00;;;;;;;7.47;1.53;;;;;;;4.69;61.79;100471.81;4975797;28;97524;-84
2021/12/20 05:48:25;;;;;;;2.63;1.23;;;;;;;4.67;61.99;100471.81;4946907;28;102010;-87
2021/12/20 05:50:51;;;;;;;5.87;1.40;;;;;;;4.60;61.79;100475.34;4955966;28;101180;-84
2021/12/20 05:53:17;;;;;;;5.97;1.70;;;;;;;4.64;62.09;100483.97;4956760;28;97097;-84
2021/12/20 05:55:42;;;;;;;4.43;1.93;;;;;;;4.45;61.67;100454.63;4991258;28;96990;-84
2021/12/20 05:58:08;;;;;;;4.17;1.47;;;;;;;4.65;62.06;100475.28;4971640;28;100853;-84
2021/12/20 06:00:33;;;;;;;4.23;1.57;;;;;;;4.58;62.14;100484.03;4976783;28;101684;-84
2021/12/20 06:02:59;;;;;;;2.83;1.67;;;;;;;4.62;61.55;100486.56;4966509;28;97379;-83
2021/12/20 06:05:25;;;;;;;3.53;1.40;;;;;;;4.61;61.55;100497.84;4983957;28;97226;-88
2021/12/20 06:07:50;;;;;;;3.43;1.17;;;;;;;4.60;61.57;100487.47;4970689;28;101405;-81
2021/12/20 06:10:17;;;;;;;4.97;1.50;;;;;;;4.59;61.78;100484.00;4968239;28;101819;-81
2021/12/20 06:12:44;;;;;;;3.70;1.47;;;;;;;4.57;61.78;100493.56;4968350;28;97306;-79
2021/12/20 06:15:11;;;;;;;3.93;1.30;;;;;;;4.57;61.69;100483.16;4964881;28;97076;-81
2021/12/20 06:17:37;;;;;;;4.27;1.40;;;;;;;4.40;61.78;100457.28;4969635;28;99851;-80
2021/12/20 06:20:07;;;;;;;3.90;1.60;;;;;;;4.36;61.72;100450.34;4971968;28;101630;-80
2021/12/20 06:22:33;;;;;;;4.40;1.50;;;;;;;4.52;61.86;100493.59;4956021;28;96891;-84
2021/12/20 06:24:59;;;;;;;6.03;1.67;;;;;;;4.43;61.74;100477.19;4967937;28;97389;-85
2021/12/20 06:27:25;;;;;;;4.43;1.57;;;;;;;4.54;61.92;100510.03;4966423;28;101455;-83
2021/12/20 06:29:50;;;;;;;4.03;1.77;;;;;;;4.56;61.88;100516.97;4953928;28;101370;-83
2021/12/20 06:32:16;;;;;;;8.53;2.20;;;;;;;4.59;61.76;100519.53;4954181;28;97749;-81
2021/12/20 06:34:41;;;;;;;6.87;1.90;;;;;;;4.59;62.05;100516.94;4978630;28;97230;-83
2021/12/20 06:37:08;;;;;;;4.77;1.70;;;;;;;4.51;62.05;100515.25;4954657;28;101521;-82
2021/12/20 06:39:34;;;;;;;5.87;2.40;;;;;;;4.47;62.10;100529.13;4986614;28;97484;-77
2021/12/20 06:41:59;;;;;;;4.43;1.83;;;;;;;4.52;62.01;100526.53;4972588;28;96878;-78
2021/12/20 06:44:25;;;;;;;5.33;1.80;;;;;;;4.48;62.29;100519.59;4972247;28;96760;-80
2021/12/20 06:46:51;;;;;;;6.40;1.80;;;;;;;4.53;62.17;100534.28;4977761;28;98265;-81
2021/12/20 06:49:17;;;;;;;4.40;1.53;;;;;;;4.53;61.99;100538.63;4965893;28;101608;-81
2021/12/20 06:51:43;;;;;;;6.60;2.30;;;;;;;4.55;61.82;100539.50;4955589;28;96944;-80
2021/12/20 06:54:12;;;;;;;8.53;1.97;;;;;;;4.54;62.02;100546.44;4970959;28;96954;-80
2021/12/20 06:56:38;;;;;;;6.27;2.60;;;;;;;4.51;62.38;100549.06;4970225;28;98335;-81
2021/12/20 06:59:04;;;;;;;6.03;2.10;;;;;;;4.52;62.25;100545.59;4952783;28;101113;-80
2021/12/20 07:01:30;;;;;;;4.93;2.10;;;;;;;4.45;61.86;100537.81;4988919;28;97242;-80
2021/12/20 07:03:55;;;;;;;4.07;2.00;;;;;;;4.50;61.96;100534.31;4953987;28;96921;-80
2021/12/20 07:06:21;;;;;;;6.30;2.60;;;;;;;4.38;61.87;100517.94;4973109;28;101474;-80
2021/12/20 07:08:47;;;;;;;5.70;2.27;;;;;;;4.47;62.29;100534.34;4980484;28;100791;-81
2021/12/20 07:11:12;;;;;;;8.97;3.30;;;;;;;4.47;62.23;100542.13;4986996;28;96894;-82
2021/12/20 07:13:38;;;;;;;6.67;2.97;;;;;;;4.48;61.89;100546.47;4957789;28;97364;-81
2021/12/20 07:16:05;;;;;;;6.70;2.73;;;;;;;4.47;61.89;100546.47;4970203;28;101316;-80
2021/12/20 07:18:30;;;;;;;5.97;2.60;;;;;;;4.39;62.25;100541.31;4980083;28;101477;-80
2021/12/20 07:20:56;;;;;;;4.73;2.10;;;;;;;4.41;62.06;100541.31;4976626;28;96799;-82
2021/12/20 07:23:22;;;;;;;5.17;1.97;;;;;;;4.38;62.32;100533.53;4970470;28;97592;-80
2021/12/20 07:25:49;;;;;;;6.43;2.20;;;;;;;4.48;62.33;100556.88;4966839;28;101201;-81
2021/12/20 07:28:15;;;;;;;5.53;1.70;;;;;;;4.28;61.96;100530.97;4989430;28;97882;-83
2021/12/20 07:30:41;;;;;;;4.90;1.87;;;;;;;4.81;71.49;100554.94;4959624;28;97979;-77
2021/12/20 07:33:07;;;;;;;3.73;1.60;;;;;;;5.34;63.47;100548.44;5002689;28;96811;-81
2021/12/20 07:35:33;;;;;;;3.87;1.60;;;;;;;5.10;61.97;100551.28;4954708;28;101772;-80
2021/12/20 07:38:01;;;;;;;4.50;1.57;;;;;;;4.96;61.74;100556.56;4957278;28;101562;-83
2021/12/20 07:40:26;;;;;;;5.07;1.57;;;;;;;4.80;61.52;100557.53;4965565;28;96973;-81
2021/12/20 07:42:52;;;;;;;6.37;1.90;;;;;;;4.71;61.93;100545.47;4973825;28;96907;-79
2021/12/20 07:45:18;;;;;;;6.57;1.70;;;;;;;4.66;61.85;100560.25;4980034;28;97684;-79
2021/12/20 07:47:43;;;;;;;5.30;1.43;;;;;;;4.61;61.66;100568.06;4972723;28;101478;-80
2021/12/20 07:50:09;;;;;;;4.77;1.70;;;;;;;4.39;62.09;100532.66;4975738;28;97098;-79
2021/12/20 07:52:35;;;;;;;8.57;1.70;;;;;;;4.57;61.80;100568.97;4991670;28;96956;-79
2021/12/20 07:55:01;;;;;;;4.77;1.67;;;;;;;4.56;62.39;100568.97;4970727;28;100904;-79
2021/12/20 07:57:26;;;;;;;6.07;1.77;;;;;;;4.52;62.11;100561.19;4988511;28;98290;-81
2021/12/20 07:59:53;;;;;;;4.07;1.60;;;;;;;4.57;62.34;100579.38;4958241;28;97230;-79
2021/12/20 08:02:18;;;;;;;4.83;1.90;;;;;;;4.51;61.98;100571.59;4958744;28;97682;-81
2021/12/20 08:04:49;;;;;;;2.67;1.73;;;;;;;4.43;62.16;100548.25;4952993;28;101587;-79
2021/12/20 08:07:15;;;;;;;9.37;2.13;;;;;;;4.38;62.30;100552.59;4974355;28;101506;-79
2021/12/20 08:09:41;;;;;;;5.63;2.23;;;;;;;4.51;61.96;100580.25;4973660;28;96824;-79
2021/12/20 08:12:07;;;;;;;10.90;2.33;;;;;;;4.41;62.32;100555.16;4973231;28;97139;-79
2021/12/20 08:14:33;;;;;;;8.97;2.10;;;;;;;4.48;62.34;100574.19;4969724;28;98113;-85
2021/12/20 08:16:59;;;;;;;4.33;2.20;;;;;;;4.35;62.35;100563.00;4974551;28;97409;-84
2021/12/20 08:19:25;;;;;;;7.33;2.53;;;;;;;4.44;62.60;100585.50;4974587;28;97157;-79
2021/12/20 08:21:51;;;;;;;6.47;2.80;;;;;;;4.37;62.33;100579.47;4988340;28;96869;-80
2021/12/20 08:24:16;;;;;;;11.83;2.97;;;;;;;4.47;62.45;100588.06;4964256;28;100724;-80
2021/12/20 08:26:42;;;;;;;8.00;2.30;;;;;;;4.31;62.52;100575.16;4958024;28;100941;-92
2021/12/20 08:29:08;;;;;;;11.80;4.67;;;;;;;4.41;62.71;100585.50;4974092;28;97398;-92
2021/12/20 08:31:36;;;;;;;9.43;4.13;;;;;;;4.47;62.23;100585.47;4966017;28;97076;-91
2021/12/20 08:34:02;;;;;;;6.77;2.70;;;;;;;4.42;62.37;100576.81;4968488;28;97934;-91
2021/12/20 08:36:28;;;;;;;5.27;2.47;;;;;;;4.50;62.41;100593.25;4961400;28;101289;-89
2021/12/20 08:38:54;;;;;;;6.17;2.63;;;;;;;4.49;62.10;100601.94;4955747;28;96747;-91
2021/12/20 08:41:20;;;;;;;4.33;2.03;;;;;;;4.47;62.21;100601.94;4983036;28;97006;-92
2021/12/20 08:43:46;;;;;;;5.97;2.37;;;;;;;4.43;62.51;100602.81;4955825;28;101575;-91
2021/12/20 08:46:13;;;;;;;11.27;3.93;;;;;;;4.42;62.28;100592.41;4973869;28;100737;-92
2021/12/20 08:48:39;;;;;;;12.17;3.13;;;;;;;4.38;62.93;100599.38;4956861;28;96862;-90
2021/12/20 08:51:05;;;;;;;15.37;5.03;;;;;;;4.35;62.59;100593.34;4958569;28;96857;-93
2021/12/20 08:53:33;;;;;;;10.40;5.70;;;;;;;4.52;62.73;100604.53;4957869;28;101274;-91
2021/12/20 08:55:59;;;;;;;10.43;4.67;;;;;;;4.49;62.59;100609.72;4942300;28;101686;-89
2021/12/20 08:58:25;;;;;;;6.00;3.10;;;;;;;4.45;62.98;100605.41;4952485;28;96752;-91
2021/12/20 09:00:52;;;;;;;6.37;2.87;;;;;;;4.30;62.75;100602.03;4957159;28;97378;-91
2021/12/20 09:03:17;;;;;;;7.57;2.20;;;;;;;4.39;62.67;100627.09;4968499;28;100923;-90
2021/12/20 09:05:43;;;;;;;5.93;2.37;;;;;;;4.41;62.74;100625.34;4977595;28;101336;-87
2021/12/20 09:08:10;;;;;;;8.17;2.63;;;;;;;4.40;62.61;100608.03;4967144;28;97261;-88
2021/12/20 09:10:37;;;;;;;11.73;3.50;;;;;;;4.48;62.74;100615.78;4971930;28;97969;-82
2021/12/20 09:13:04;;;;;;;5.30;2.60;;;;;;;4.52;62.39;100626.19;4991521;28;100372;-82
2021/12/20 09:15:30;;;;;;;5.80;2.20;;;;;;;4.50;62.73;100622.72;4972345;28;97615;-86
2021/12/20 09:17:56;;;;;;;6.83;3.10;;;;;;;4.43;63.04;100622.75;4985742;28;100275;-80
2021/12/20 09:20:24;;;;;;;6.77;2.67;;;;;;;4.50;62.96;100632.25;4971651;28;96853;-83
2021/12/20 09:22:56;;;;;;;9.03;2.90;;;;;;;4.49;62.68;100627.94;4982811;28;101420;-81
2021/12/20 09:25:24;;;;;;;4.90;2.47;;;;;;;4.44;62.74;100624.47;4969796;28;101081;-83
2021/12/20 09:27:51;;;;;;;6.87;2.40;;;;;;;4.43;62.74;100627.97;4971537;28;98177;-78
2021/12/20 09:30:18;;;;;;;8.93;2.27;;;;;;;4.34;62.72;100615.88;4990280;28;97214;-78
2021/12/20 09:32:44;;;;;;;9.60;2.37;;;;;;;4.39;62.73;100623.63;4985698;28;98535;-79
2021/12/20 09:35:10;;;;;;;10.20;2.53;;;;;;;4.44;62.94;100624.47;4966496;28;97367;-81
2021/12/20 09:37:37;;;;;;;8.43;2.80;;;;;;;4.50;62.41;100632.25;4968969;28;96833;-79
2021/12/20 09:40:08;;;;;;;13.03;2.77;;;;;;;4.44;62.79;100627.09;4973904;28;97401;-78
2021/12/20 09:42:34;;;;;;;8.75;3.28;;;;;;;4.49;62.71;100648.72;4969746;28;101324;-79
2021/12/20 09:45:01;;;;;;;7.47;2.60;;;;;;;4.49;62.49;100640.94;4958796;28;100870;-80
2021/12/20 09:47:33;;;;;;;7.70;3.00;;;;;;;4.42;62.84;100629.69;4956273;28;96719;-79
2021/12/20 09:50:03;;;;;;;5.50;3.03;;;;;;;4.47;62.83;100630.53;4969418;28;97054;-80
2021/12/20 09:52:29;;;;;;;10.90;3.40;;;;;;;4.33;62.77;100603.72;4975076;28;102544;-79
2021/12/20 09:54:55;;;;;;;5.40;2.87;;;;;;;4.52;62.70;100648.72;4959392;28;100928;-79
2021/12/20 09:57:21;;;;;;;7.67;2.87;;;;;;;4.41;62.43;100627.94;5005820;28;96987;-82
2021/12/20 09:59:48;;;;;;;6.77;2.80;;;;;;;4.51;62.76;100641.81;4978551;28;97623;-79
2021/12/20 10:02:15;;;;;;;8.80;3.70;;;;;;;4.44;62.87;100624.47;4991029;28;97893;-80
2021/12/20 10:04:41;;;;;;;8.70;3.27;;;;;;;4.46;62.91;100639.19;4967963;28;101338;-80
2021/12/20 10:07:08;;;;;;;9.13;2.97;;;;;;;4.48;62.77;100624.47;4954395;28;97221;-80
2021/12/20 10:09:36;;;;;;;9.83;2.83;;;;;;;4.53;62.63;100632.25;4964262;28;97319;-87
2021/12/20 10:12:11;;;;;;;10.87;3.33;;;;;;;4.53;62.81;100630.50;4968040;28;100779;-79
2021/12/20 10:14:56;;;;;;;7.97;2.93;;;;;;;4.53;62.70;100638.28;4989462;28;101818;-81
2021/12/20 10:17:23;;;;;;;10.23;3.30;;;;;;;4.37;62.80;100608.06;4986233;28;96751;-78
2021/12/20 10:19:49;;;;;;;7.17;3.27;;;;;;;4.56;62.84;100633.97;4986661;28;97896;-79
2021/12/20 10:22:30;;;;;;;5.87;2.60;;;;;;;4.53;62.78;100634.84;4958674;28;101267;-79
2021/12/20 10:25:02;;;;;;;6.82;2.33;;;;;;;4.54;62.73;100632.25;4970811;28;101462;-81
2021/12/20 10:27:36;;;;;;;10.15;2.95;;;;;;;4.54;62.53;100627.03;4964785;28;96852;-78
2021/12/20 10:30:25;;;;;;;8.03;3.03;;;;;;;4.50;62.27;100625.31;4968458;28;97041;-81
2021/12/20 10:32:52;;;;;;;10.60;3.10;;;;;;;4.52;62.33;100623.56;4973451;28;101492;-78
2021/12/20 10:35:34;;;;;;;6.83;2.80;;;;;;;4.61;62.61;100632.22;4974072;28;101318;-82
2021/12/20 10:38:04;;;;;;;10.63;3.53;;;;;;;4.61;62.24;100625.28;4966542;28;96710;-79
2021/12/20 10:40:30;;;;;;;10.73;3.47;;;;;;;4.63;62.28;100635.69;4944868;28;98455;-79
2021/12/20 10:42:57;;;;;;;12.03;4.03;;;;;;;4.60;62.25;100628.75;4970402;28;100707;-79
2021/12/20 10:45:24;;;;;;;9.03;4.53;;;;;;;4.61;62.70;100621.81;4961620;28;100932;-78
2021/12/20 10:47:53;;;;;;;7.03;3.57;;;;;;;4.64;62.61;100620.06;4959205;28;97027;-79
2021/12/20 10:50:34;;;;;;;11.10;4.00;;;;;;;4.44;62.46;100588.94;4972459;28;97124;-78
2021/12/20 10:53:22;;;;;;;8.47;3.33;;;;;;;4.66;62.49;100622.66;4981671;28;98055;-79
2021/12/20 10:55:54;;;;;;;7.73;3.13;;;;;;;4.68;62.04;100628.69;4952969;28;100980;-80
2021/12/20 10:58:31;;;;;;;10.45;3.17;;;;;;;4.54;62.50;100610.59;4972958;28;97147;-80
2021/12/20 11:04:08;;;;;;;11.80;2.90;;;;;;;4.69;62.55;100623.50;4980649;28;100821;-80
2021/12/20 11:09:15;;;;;;;8.70;3.23;;;;;;;4.74;62.31;100616.53;4981109;28;97286;-81
2021/12/20 11:11:51;;;;;;;9.07;2.83;;;;;;;4.66;62.22;100620.06;4971029;28;97223;-79
2021/12/20 11:14:20;;;;;;;6.60;2.67;;;;;;;4.73;62.62;100632.16;4963020;28;101333;-82
2021/12/20 11:16:49;;;;;;;7.77;2.87;;;;;;;4.76;62.52;100638.19;4969098;28;101346;-80
2021/12/20 11:19:26;;;;;;;8.23;2.90;;;;;;;4.75;62.10;100633.00;4958324;28;97212;-79
2021/12/20 11:22:10;;;;;;;5.63;2.57;;;;;;;4.63;61.84;100607.06;4965296;28;96977;-79
2021/12/20 11:24:52;;;;;;;6.10;2.53;;;;;;;4.74;62.06;100628.66;4988590;28;101528;-79
2021/12/20 11:27:22;;;;;;;;;;;;;;;4.75;61.94;100635.63;4972015;28;98372;-79
2021/12/20 11:29:50;;;;;;;6.30;3.23;;;;;;;4.73;61.87;100630.41;4994029;28;97314;-79
2021/12/20 11:32:16;;;;;;;6.27;3.07;;;;;;;4.76;62.32;100639.94;4955107;28;96918;-80
2021/12/20 11:34:43;;;;;;;7.47;3.30;;;;;;;4.80;62.27;100633.84;4970576;28;101682;-79
2021/12/20 11:37:15;;;;;;;6.17;2.60;;;;;;;4.81;62.18;100634.72;4956624;28;101341;-79
2021/12/20 11:39:41;;;;;;;11.23;2.87;;;;;;;4.78;61.94;100629.53;4988186;28;97406;-80
2021/12/20 11:42:07;;;;;;;8.50;2.80;;;;;;;4.83;62.28;100640.75;4959910;28;97280;-79
2021/12/20 11:44:35;;;;;;;10.53;2.87;;;;;;;4.75;61.95;100631.28;4967958;28;98100;-79
2021/12/20 11:47:28;;;;;;;5.67;2.17;;;;;;;4.79;62.38;100641.66;4975566;28;101000;-80